• Join FlightAware (Why Join?)
  • Login
  • US Flag 
05:59AM EDT


 

Airport Tracker/Info


-or-


 

Live Flight TrackerFlight Track Log ✈ SWA4732 ✈ 27-Dec-2012 ✈ KBWI - KMHT

Flight Track Log - Related Links

Times and Time Zones

All times are in EST time to prevent confusion due to time zone crossing. See the SWA4732 flight status page for this flight to view local times or setup timezone preferences in your user account.

Time Position Orientation Groundspeed Altitude Reporting Facility
EST Latitude Longitude Course Direction KTS MPH feet Rate Location/Type
03:53PM 39.1667 -76.7500 90° East 210 242 3,300  Level Potomac TRACON
03:54PM 39.0606 -76.6717 150° Southeast 246 283 7,200 2,280 Climbing Washington Center
03:55PM 38.9947 -76.5931 137° Southeast 285 328 9,700 1,920 Climbing Washington Center
03:56PM 38.9975 -76.4811 88° East 268 308 11,100 1,620 Climbing Washington Center
03:57PM 39.0403 -76.3586 66° East 288 331 13,100 2,160 Climbing Washington Center
03:58PM 39.1667 -76.6491 90° East  Level FlightAware Approximate
03:58PM 39.0806 -76.2281 68° East 344 396 15,500  Level Washington Center
03:59PM 39.1250 -76.0947 67° East 379 436 17,400 1,980 Climbing Washington Center
04:00PM 39.1692 -75.9558 68° East 404 465 19,500 2,160 Climbing Washington Center
04:01PM 39.2319 -75.8300 57° Northeast 411 473 21,800 2,040 Climbing Washington Center
04:02PM 39.3133 -75.7258 45° Northeast 411 473 23,600 1,740 Climbing Washington Center
04:05PM 39.5067 -75.4797 44° Northeast 420 483 27,600 1,560 Climbing New York Center
04:06PM 39.5925 -75.3669 45° Northeast 431 496 28,700 1,260 Climbing New York Center
04:07PM 39.6806 -75.2458 47° Northeast 444 511 30,100 1,440 Climbing New York Center
04:08PM 39.7667 -75.1189 49° Northeast 455 524 31,700 1,500 Climbing New York Center
04:09PM 39.8522 -74.9972 47° Northeast 455 524 33,200 1,140 Climbing New York Center
04:10PM 39.9381 -74.8725 48° Northeast 455 524 34,000 900 Climbing New York Center
04:11PM 40.0275 -74.7558 45° Northeast 455 524 35,000 480 Climbing New York Center
04:12PM 40.1506 -74.6950 21° North 428 493 35,000  Level New York Center
04:13PM 40.2683 -74.6553 14° North 421 484 35,000  Level New York Center
04:14PM 40.3822 -74.6156 15° North 421 484 35,000  Level New York Center
04:15PM 40.5800 -74.5497 14° North 431 496 35,000  Level Boston Center
04:16PM 40.6975 -74.5097 14° North 431 496 35,000  Level Boston Center
04:17PM 40.8150 -74.4694 15° North 431 496 35,000  Level Boston Center
04:18PM 40.9322 -74.4292 15° North 436 502 35,000  Level Boston Center
04:19PM 41.0372 -74.3967 13° North 431 496 35,000  Level Boston Center
04:20PM 41.1606 -74.3617 12° North 437 503 35,000  Level Boston Center
04:21PM 41.2697 -74.3181 17° North 425 489 35,000  Level Boston Center
04:22PM 41.3850 -74.2800 14° North 417 480 35,000  Level Boston Center
04:23PM 41.4983 -74.2417 14° North 417 480 35,000 -300 Level Boston Center
04:24PM 41.6178 -74.2006 14° North 422 486 34,500 -780 Descending Boston Center
04:25PM 41.7350 -74.1594 15° North 428 493 33,500 -960 Descending Boston Center
04:26PM 41.8461 -74.1233 14° North 420 483 32,600 -960 Descending Boston Center
04:27PM 41.9611 -74.0844 14° North 420 483 31,600 -960 Descending Boston Center
04:28PM 42.0744 -74.0372 17° North 414 476 30,700 -900 Descending Boston Center
04:30PM 42.2031 -73.7631 58° Northeast 425 489 28,900 -1,020 Descending Boston Center
04:31PM 42.2717 -73.5961 61° Northeast 431 496 27,800 -1,080 Descending Boston Center
04:32PM 42.3292 -73.4539 61° Northeast 431 496 26,800 -1,020 Descending Boston Center
04:33PM 42.3867 -73.3114 61° Northeast 430 495 25,800 -1,020 Descending Boston Center
04:34PM 42.4419 -73.1689 62° Northeast 430 495 24,800 -900 Descending Boston Center
04:35PM 42.4967 -73.0342 61° Northeast 418 481 24,000 -480 Descending Boston Center
04:36PM 42.5494 -72.9050 61° Northeast 407 468 23,900 -840 Descending Boston Center
04:37PM 42.5978 -72.7814 62° Northeast 383 441 22,400 -1,560 Descending Boston Center
04:38PM 42.6317 -72.6544 70° East 365 420 20,800 -1,860 Descending Boston Center
04:39PM 42.6650 -72.5333 69° East 355 409 18,700 -2,340 Descending Boston Center
04:40PM 42.6983 -72.4061 70° East 350 403 16,200 -2,280 Descending Boston Center
04:41PM 42.7317 -72.2819 70° East 345 397 14,200 -1,980 Descending Boston Center
04:42PM 42.7606 -72.1600 72° East 345 397 12,300 -1,860 Descending Boston Center
04:43PM 42.7875 -72.0553 71° East 325 374 10,500 -1,500 Descending Boston Center
04:44PM 42.7972 -71.9308 84° East 309 356 9,300 -1,380 Descending Boston Center
04:45PM 42.7906 -71.8317 95° East 301 346 7,800 -1,380 Descending Boston Center
04:46PM 42.7817 -71.7186 96° East 276 318 6,600 -1,200 Descending Boston Center
04:47PM 42.7769 -71.6311 94° East 261 300 5,500 -1,260 Descending Boston Center
04:48PM 42.7575 -71.5381 106° East 242 278 4,100 -1,740 Descending Boston Center
04:49PM 42.7483 -71.4619 99° East 230 265 2,100 -1,080 Descending Boston Center
04:50PM 42.7581 -71.3769 81° East 214 246 2,000 -60 Descending Boston Center
04:51PM 42.7933 -71.3592 20° North 156 180 2,000  Level Boston Center
04:52PM 42.8394 -71.3811 341° North 141 162 2,000 -300 Level Boston Center
04:53PM 42.8708 -71.3975 339° North 146 168 1,400 -720 Descending Boston Center
04:54PM 42.9044 -71.4197 334° Northwest 135 155 600 -540 Descending Boston Center
04:55PM 42.9378 -71.4389 337° Northwest 135 155 400 9,180 Descending Boston Center
04:56PM 42.9694 -71.4611 333° Northwest 135 155 19,000 9,300 Climbing Boston Center
04:57PM 43.0008 -71.4806 336° Northwest 135 155 19,000  Level Boston Center